Du har inga inställningar för hoppväder.nu

Hoppväder.nu

Senast uppdaterat 12:05

UTC-tid

2021-12-07 kl. 11:05


Sol och måne

Solen går upp 8:22 och går ner 15:29 (beräknade cirkatider)
Nästa fullmåne blir om 12 dagar (2021-12-19)

METAR

ESMK (Everöd)
(15 minuter sedan)
ESMK 071050Z 16009KT 9999 BKN033 01/M05 Q1014=



ESMS (Malmö)
(15 minuter sedan)
ESMS 071050Z 14009KT 9999 BKN030 01/M05 Q1013=



ESMX (Växjö)
(45 minuter sedan)
ESMX 071020Z 06004KT 9999 BKN037 M05/M07 Q1015=



ESDF (Ronneby)
(15 minuter sedan)
ESDF 071050Z 07006KT 7000 -GS BKN023 M03/M05 Q1015=



EKRN (Rønne, Bornholm)
(45 minuter sedan)
EKRN 071020Z AUTO 14014KT 9999 OVC032/// 00/M06 Q1015=



TAF

ESMK (Everöd)
(180 minuter sedan)
ESMK 070805Z 0709/0718 14008KT 9999 BKN020=



ESMS (Malmö)
(363 minuter sedan)
ESMS 070502Z 0706/0806 14012KT 9999 BKN025 TEMPO 0721/0806 -RASN BKN012=



ESMX (Växjö)
(155 minuter sedan)
ESMX 070830Z 0709/0717 12006KT 9999 OVC035 TEMPO 0713/0717 2500 SN=



ESDF (Ronneby)
(155 minuter sedan)
ESDF 070830Z 0709/0718 08008KT 9999 -SN BKN030 PROB40 0710/0717 3000 SN RMK MIL=



EKRN (Rønne, Bornholm)
(180 minuter sedan)
EKRN 070805Z 0709/0718 13012KT 9999 BKN030=





Kodnycklar till TAF och METAR






LHP

(Everöd är område se11e i Hela Område 1)







Spotting

Hur fungerar spotthjälpen och Vindkartan?

Markvind är ca 0 m/s.



Vindkartan

Senast uppdaterad 12:05




All data kommer från LFV.se